createdAt,value
2017-09-25T00:01:12.578Z,15.20
2017-09-25T00:03:47.168Z,15.20
2017-09-25T00:06:21.762Z,15.10
2017-09-25T00:08:56.369Z,15.10
2017-09-25T00:11:31.185Z,15.10
2017-09-25T00:14:05.607Z,15.10
2017-09-25T00:16:40.118Z,15.10
2017-09-25T00:19:14.639Z,15.10
2017-09-25T00:21:49.245Z,15.10
2017-09-25T00:24:23.965Z,15.10
2017-09-25T00:26:58.487Z,15.10
2017-09-25T00:29:32.991Z,15.10
2017-09-25T00:32:07.643Z,15.10
2017-09-25T00:34:42.123Z,15.00
2017-09-25T00:37:16.706Z,15.00
2017-09-25T00:39:51.391Z,15.00
2017-09-25T00:42:25.902Z,15.00
2017-09-25T00:45:00.511Z,15.00
2017-09-25T00:47:35.133Z,14.90
2017-09-25T00:50:14.256Z,14.90
2017-09-25T00:52:59.978Z,14.80
2017-09-25T00:55:54.986Z,14.80
2017-09-25T00:58:29.334Z,14.80
2017-09-25T01:01:14.758Z,14.70
2017-09-25T01:03:55.139Z,14.70
2017-09-25T01:06:29.745Z,14.70
2017-09-25T01:09:03.502Z,14.60
2017-09-25T01:11:38.230Z,14.60
2017-09-25T01:14:12.895Z,14.60
2017-09-25T01:16:47.578Z,14.50
2017-09-25T01:19:22.162Z,14.50
2017-09-25T01:21:56.678Z,14.50
2017-09-25T01:24:31.210Z,14.50
2017-09-25T01:27:06.395Z,14.40
2017-09-25T01:29:41.239Z,14.40
2017-09-25T01:32:15.727Z,14.40
2017-09-25T01:34:50.421Z,14.30
2017-09-25T01:37:24.843Z,14.30
2017-09-25T01:39:59.534Z,14.20
2017-09-25T01:42:35.033Z,14.20
2017-09-25T01:45:17.362Z,14.10
2017-09-25T01:47:52.039Z,14.10
2017-09-25T01:50:26.544Z,14.10
2017-09-25T01:53:01.142Z,14.10
2017-09-25T01:55:35.785Z,14.00
2017-09-25T01:58:10.238Z,14.00
2017-09-25T02:00:44.467Z,14.00
2017-09-25T02:03:19.050Z,13.90
2017-09-25T02:05:53.705Z,13.90
2017-09-25T02:08:28.233Z,13.80
2017-09-25T02:11:02.583Z,13.80
2017-09-25T02:13:37.095Z,13.80
2017-09-25T02:16:11.597Z,13.70
2017-09-25T02:18:46.310Z,13.70
2017-09-25T02:21:20.774Z,13.60
2017-09-25T02:23:55.342Z,13.60
2017-09-25T02:26:29.999Z,13.60
2017-09-25T02:29:04.529Z,13.50
2017-09-25T02:31:39.202Z,13.50
2017-09-25T02:34:13.790Z,13.50
2017-09-25T02:36:48.434Z,13.40
2017-09-25T02:39:23.066Z,13.40
2017-09-25T02:41:57.693Z,13.40
2017-09-25T02:44:32.132Z,13.40
2017-09-25T02:47:06.755Z,13.30
2017-09-25T02:49:41.287Z,13.30
2017-09-25T02:52:16.603Z,13.40
2017-09-25T02:54:52.061Z,13.40
2017-09-25T02:57:26.432Z,13.30
2017-09-25T03:00:01.068Z,13.40
2017-09-25T03:02:35.627Z,13.50
2017-09-25T03:05:10.423Z,13.50
2017-09-25T03:07:44.988Z,13.50
2017-09-25T03:10:19.665Z,13.60
2017-09-25T03:12:54.147Z,13.60
2017-09-25T03:15:29.533Z,13.60
2017-09-25T03:18:04.155Z,13.60
2017-09-25T03:20:38.707Z,13.60
2017-09-25T03:23:13.066Z,13.60
2017-09-25T03:25:47.610Z,13.60
2017-09-25T03:28:22.212Z,13.60
2017-09-25T03:30:56.822Z,13.60
2017-09-25T03:33:31.420Z,13.50
2017-09-25T03:36:06.790Z,13.40
2017-09-25T03:38:41.237Z,13.30
2017-09-25T03:41:15.891Z,13.30
2017-09-25T03:43:50.609Z,13.30
2017-09-25T03:46:25.232Z,13.20
2017-09-25T03:48:59.834Z,13.20
2017-09-25T03:51:34.410Z,13.10
2017-09-25T03:54:09.071Z,13.00
2017-09-25T03:56:43.775Z,13.00
2017-09-25T03:59:18.479Z,12.80
2017-09-25T04:01:53.086Z,12.70
2017-09-25T04:04:27.766Z,12.70
2017-09-25T04:07:02.330Z,12.80
2017-09-25T04:09:37.101Z,12.70
2017-09-25T04:12:12.535Z,12.80
2017-09-25T04:14:47.078Z,12.70
2017-09-25T04:17:21.655Z,12.80
2017-09-25T04:19:56.270Z,12.80
2017-09-25T04:22:30.863Z,12.80
2017-09-25T04:25:09.230Z,12.90
2017-09-25T04:27:43.729Z,12.80
2017-09-25T04:30:18.342Z,12.90
2017-09-25T04:32:53.082Z,12.90
2017-09-25T04:35:27.707Z,12.90
2017-09-25T04:38:02.289Z,12.90
2017-09-25T04:40:36.841Z,12.90
2017-09-25T04:43:11.489Z,12.90
2017-09-25T04:45:46.174Z,12.90
2017-09-25T04:48:20.857Z,12.80
2017-09-25T04:50:55.420Z,12.90
2017-09-25T04:53:30.207Z,12.90
2017-09-25T04:56:04.739Z,12.90
2017-09-25T04:58:39.397Z,12.90
2017-09-25T05:01:14.027Z,12.80
2017-09-25T05:03:48.627Z,12.80
2017-09-25T05:06:23.152Z,12.90
2017-09-25T05:08:57.834Z,12.90
2017-09-25T05:11:32.338Z,13.00
2017-09-25T05:14:06.875Z,13.00
2017-09-25T05:16:41.435Z,13.10
2017-09-25T05:19:16.023Z,13.10
2017-09-25T05:21:50.557Z,13.20
2017-09-25T05:24:25.070Z,13.20
2017-09-25T05:26:59.626Z,13.30
2017-09-25T05:29:34.319Z,13.30
2017-09-25T05:32:09.661Z,13.40
2017-09-25T05:34:44.294Z,13.40
2017-09-25T05:37:18.809Z,13.40
2017-09-25T05:39:53.435Z,13.40
2017-09-25T05:42:27.967Z,13.50
2017-09-25T05:45:12.207Z,13.50
2017-09-25T05:47:47.596Z,13.50
2017-09-25T05:50:23.182Z,13.60
2017-09-25T05:52:58.488Z,13.50
2017-09-25T05:55:33.211Z,13.60
2017-09-25T05:58:07.817Z,13.60
2017-09-25T06:00:42.507Z,13.60
2017-09-25T06:03:17.812Z,13.70
2017-09-25T06:05:52.510Z,13.70
2017-09-25T06:08:27.281Z,13.70
2017-09-25T06:11:01.922Z,13.70
2017-09-25T06:13:36.441Z,13.70
2017-09-25T06:16:11.039Z,13.80
2017-09-25T06:18:45.563Z,13.80
2017-09-25T06:21:20.188Z,13.90
2017-09-25T06:23:54.633Z,14.00
2017-09-25T06:26:29.215Z,14.10
2017-09-25T06:29:04.597Z,14.50
2017-09-25T06:31:39.202Z,14.40
2017-09-25T06:34:14.109Z,14.60
2017-09-25T06:36:48.647Z,14.70
2017-09-25T06:39:23.266Z,14.80
2017-09-25T06:41:57.899Z,14.90
2017-09-25T06:44:33.227Z,15.10
2017-09-25T06:47:07.789Z,15.00
2017-09-25T06:49:42.463Z,15.10
2017-09-25T06:52:17.206Z,15.20
2017-09-25T06:54:51.490Z,15.20
2017-09-25T06:57:26.047Z,15.30
2017-09-25T07:00:00.723Z,15.30
2017-09-25T07:02:35.179Z,15.30
2017-09-25T07:05:16.050Z,15.30
2017-09-25T07:07:50.618Z,15.20
2017-09-25T07:10:25.382Z,15.10
2017-09-25T07:12:59.869Z,15.20
2017-09-25T07:15:34.450Z,15.20
2017-09-25T07:18:09.034Z,15.10
2017-09-25T07:20:43.614Z,15.00
2017-09-25T07:23:18.191Z,15.10
2017-09-25T07:25:52.691Z,15.10
2017-09-25T07:28:27.334Z,15.10
2017-09-25T07:31:01.837Z,15.10
2017-09-25T07:33:36.510Z,15.00
2017-09-25T07:36:11.066Z,15.20
2017-09-25T07:38:45.609Z,15.30
2017-09-25T07:41:20.142Z,15.50
2017-09-25T07:43:54.830Z,15.70
2017-09-25T07:46:29.363Z,15.90
2017-09-25T07:49:04.031Z,16.20
2017-09-25T07:51:38.573Z,16.50
2017-09-25T07:54:13.202Z,16.90
2017-09-25T07:56:47.812Z,17.20
2017-09-25T07:59:22.359Z,17.10
2017-09-25T08:01:56.943Z,17.30
2017-09-25T08:04:31.501Z,17.70
2017-09-25T08:07:05.926Z,18.10
2017-09-25T08:09:40.438Z,18.50
2017-09-25T08:12:15.056Z,18.90
2017-09-25T08:14:49.497Z,19.10
2017-09-25T08:17:24.091Z,19.10
2017-09-25T08:19:58.774Z,19.50
2017-09-25T08:22:33.348Z,19.80
2017-09-25T08:25:15.692Z,20.10
2017-09-25T08:27:50.287Z,20.40
2017-09-25T08:30:24.527Z,21.10
2017-09-25T08:32:59.078Z,22.00
2017-09-25T08:35:33.706Z,23.30
2017-09-25T08:38:08.422Z,25.40
2017-09-25T08:40:43.218Z,27.20
2017-09-25T08:43:17.758Z,29.30
2017-09-25T08:45:52.340Z,31.00
2017-09-25T08:48:26.830Z,31.30
2017-09-25T08:51:01.570Z,30.40
2017-09-25T08:53:36.198Z,29.50
2017-09-25T08:56:10.858Z,28.80
2017-09-25T08:58:45.419Z,28.80
2017-09-25T09:01:20.119Z,31.90
2017-09-25T09:03:54.583Z,34.70
2017-09-25T09:06:29.206Z,33.80
2017-09-25T09:09:03.134Z,33.40
2017-09-25T09:11:37.617Z,36.90
2017-09-25T09:14:12.084Z,37.80
2017-09-25T09:16:46.787Z,35.80
2017-09-25T09:19:21.445Z,33.50
2017-09-25T09:21:55.935Z,32.00
2017-09-25T09:24:30.437Z,32.40
2017-09-25T09:27:05.146Z,32.50
2017-09-25T09:29:39.742Z,33.20
2017-09-25T09:32:14.335Z,32.20
2017-09-25T09:34:49.010Z,30.90
2017-09-25T09:37:23.634Z,29.60
2017-09-25T09:39:58.559Z,28.20
2017-09-25T09:42:33.118Z,25.90
2017-09-25T09:45:11.434Z,25.10
2017-09-25T09:47:46.052Z,25.60
2017-09-25T09:50:20.690Z,26.90
2017-09-25T09:52:55.128Z,30.90
2017-09-25T09:55:29.677Z,34.00
2017-09-25T09:58:04.287Z,37.80
2017-09-25T10:00:38.739Z,34.60
2017-09-25T10:03:13.947Z,38.30
2017-09-25T10:05:48.702Z,38.10
2017-09-25T10:08:23.287Z,37.30
2017-09-25T10:10:57.832Z,35.30
2017-09-25T10:13:32.358Z,32.90
2017-09-25T10:16:07.047Z,29.70
2017-09-25T10:18:41.778Z,28.30
2017-09-25T10:21:16.305Z,26.90
2017-09-25T10:23:51.091Z,25.70
2017-09-25T10:26:25.614Z,25.00
2017-09-25T10:29:00.091Z,24.50
2017-09-25T10:31:34.632Z,24.00
2017-09-25T10:34:10.799Z,23.40
2017-09-25T10:36:45.438Z,22.90
2017-09-25T10:39:19.956Z,22.60
2017-09-25T10:41:54.556Z,23.70
2017-09-25T10:44:29.111Z,24.10
2017-09-25T10:47:04.541Z,23.50
2017-09-25T10:49:39.162Z,23.40
2017-09-25T10:52:13.780Z,23.50
2017-09-25T10:54:48.406Z,23.40
2017-09-25T10:57:23.032Z,23.30
2017-09-25T10:59:57.479Z,23.00
2017-09-25T11:02:31.978Z,22.70
2017-09-25T11:05:09.513Z,22.50
2017-09-25T11:07:43.953Z,22.40
2017-09-25T11:10:18.582Z,23.00
2017-09-25T11:12:53.219Z,23.10
2017-09-25T11:15:27.711Z,22.70
2017-09-25T11:18:02.308Z,22.20
2017-09-25T11:20:36.896Z,21.70
2017-09-25T11:23:11.454Z,21.30
2017-09-25T11:25:45.981Z,20.90
2017-09-25T11:28:20.539Z,20.60
2017-09-25T11:30:55.293Z,20.30
2017-09-25T11:33:29.815Z,20.20
2017-09-25T11:36:04.383Z,19.70
2017-09-25T11:38:38.871Z,19.90
2017-09-25T11:41:13.467Z,20.40
2017-09-25T11:43:47.922Z,20.60
2017-09-25T11:46:22.458Z,21.60
2017-09-25T11:48:57.027Z,21.50
2017-09-25T11:51:31.617Z,21.70
2017-09-25T11:54:05.975Z,21.60
2017-09-25T11:56:40.432Z,21.70
2017-09-25T11:59:14.954Z,21.50
2017-09-25T12:01:49.498Z,21.30
2017-09-25T12:04:24.046Z,21.20
2017-09-25T12:06:58.658Z,21.10
2017-09-25T12:09:33.328Z,21.00
2017-09-25T12:12:07.859Z,21.00
2017-09-25T12:14:42.343Z,20.80
2017-09-25T12:17:16.910Z,20.80
2017-09-25T12:19:52.302Z,21.20
2017-09-25T12:22:26.927Z,21.10
2017-09-25T12:25:02.315Z,21.90
2017-09-25T12:27:36.842Z,21.80
2017-09-25T12:30:12.160Z,21.40
2017-09-25T12:32:46.655Z,21.40
2017-09-25T12:35:21.881Z,22.60
2017-09-25T12:37:56.470Z,22.60
2017-09-25T12:40:31.019Z,22.70
2017-09-25T12:43:05.444Z,22.80
2017-09-25T12:45:40.043Z,22.60
2017-09-25T12:48:14.726Z,22.90
2017-09-25T12:50:49.142Z,22.90
2017-09-25T12:53:23.743Z,22.40
2017-09-25T12:55:58.295Z,22.40
2017-09-25T12:58:32.943Z,22.40
2017-09-25T13:01:07.560Z,22.70
2017-09-25T13:03:42.191Z,22.50
2017-09-25T13:06:16.798Z,22.60
2017-09-25T13:08:51.443Z,22.70
2017-09-25T13:11:26.738Z,22.50
2017-09-25T13:14:01.356Z,22.50
2017-09-25T13:16:35.815Z,22.50
2017-09-25T13:19:10.252Z,22.70
2017-09-25T13:21:44.911Z,22.50
2017-09-25T13:24:19.598Z,22.30
2017-09-25T13:26:54.236Z,22.00
2017-09-25T13:29:28.755Z,21.90
2017-09-25T13:32:03.246Z,21.80
2017-09-25T13:34:37.950Z,21.70
2017-09-25T13:37:12.858Z,21.10
2017-09-25T13:39:47.630Z,20.90
2017-09-25T13:42:22.183Z,20.60
2017-09-25T13:44:56.760Z,20.50
2017-09-25T13:47:31.329Z,20.60
2017-09-25T13:50:12.810Z,20.50
2017-09-25T13:52:47.371Z,20.50
2017-09-25T13:55:21.890Z,20.50
2017-09-25T13:57:56.371Z,20.40
2017-09-25T14:03:10.923Z,20.70
2017-09-25T14:05:45.467Z,20.80
2017-09-25T14:08:20.077Z,21.00
2017-09-25T14:10:54.683Z,21.00
2017-09-25T14:13:29.118Z,20.80
2017-09-25T14:16:03.666Z,20.60
2017-09-25T14:18:38.123Z,20.50
2017-09-25T14:21:12.613Z,20.70
2017-09-25T14:23:47.266Z,20.80
2017-09-25T14:26:21.810Z,20.70
2017-09-25T14:28:56.242Z,20.70
2017-09-25T14:31:30.733Z,20.80
2017-09-25T14:34:05.327Z,20.80
2017-09-25T14:36:39.995Z,20.80
2017-09-25T14:39:15.299Z,20.50
2017-09-25T14:41:49.870Z,20.40
2017-09-25T14:44:24.526Z,20.40
2017-09-25T14:46:59.136Z,20.50
2017-09-25T14:49:33.608Z,20.30
2017-09-25T14:52:08.227Z,20.40
2017-09-25T14:54:42.861Z,20.40
2017-09-25T14:57:17.519Z,20.40
2017-09-25T14:59:52.187Z,20.20
2017-09-25T15:02:26.756Z,20.30
2017-09-25T15:05:01.226Z,20.30
2017-09-25T15:07:35.641Z,20.30
2017-09-25T15:10:11.358Z,20.20
2017-09-25T15:12:45.974Z,20.10
2017-09-25T15:15:20.542Z,20.30
2017-09-25T15:17:55.250Z,20.20
2017-09-25T15:20:29.715Z,20.20
2017-09-25T15:23:04.300Z,20.00
2017-09-25T15:25:38.677Z,19.70
2017-09-25T15:28:13.259Z,19.70
2017-09-25T15:30:47.931Z,19.70
2017-09-25T15:33:22.586Z,19.30
2017-09-25T15:35:57.239Z,19.30
2017-09-25T15:38:31.830Z,19.30
2017-09-25T15:41:06.383Z,19.40
2017-09-25T15:43:41.121Z,19.40
2017-09-25T15:46:15.691Z,19.50
2017-09-25T15:48:50.139Z,19.40
2017-09-25T15:51:24.779Z,19.40
2017-09-25T15:53:59.193Z,19.50
2017-09-25T15:56:33.824Z,19.50
2017-09-25T15:59:08.377Z,19.50
2017-09-25T16:01:43.742Z,19.30
2017-09-25T16:04:18.191Z,19.30
2017-09-25T16:06:52.783Z,19.20
2017-09-25T16:09:27.415Z,19.10
2017-09-25T16:12:01.995Z,19.10
2017-09-25T16:14:36.438Z,19.00
2017-09-25T16:17:11.797Z,18.80
2017-09-25T16:19:46.439Z,18.80
2017-09-25T16:22:20.962Z,18.80
2017-09-25T16:24:55.715Z,18.70
2017-09-25T16:27:30.154Z,18.60
2017-09-25T16:30:12.446Z,18.50
2017-09-25T16:32:47.007Z,18.50
2017-09-25T16:35:21.494Z,18.40
2017-09-25T16:37:56.031Z,18.30
2017-09-25T16:40:30.686Z,18.20
2017-09-25T16:43:05.245Z,18.10
2017-09-25T16:45:39.882Z,18.00
2017-09-25T16:48:14.394Z,18.00
2017-09-25T16:50:48.902Z,17.90
2017-09-25T16:53:23.565Z,17.80
2017-09-25T16:55:58.089Z,17.70
2017-09-25T16:58:32.815Z,17.70
2017-09-25T17:01:07.427Z,17.60
2017-09-25T17:03:41.862Z,17.50
2017-09-25T17:06:16.834Z,17.50
2017-09-25T17:08:51.535Z,17.40
2017-09-25T17:11:26.152Z,17.30
2017-09-25T17:14:00.919Z,17.30
2017-09-25T17:16:35.434Z,17.20
2017-09-25T17:19:10.101Z,17.10
2017-09-25T17:21:44.662Z,17.10
2017-09-25T17:24:19.336Z,17.10
2017-09-25T17:26:53.914Z,17.00
2017-09-25T17:29:28.519Z,17.00
2017-09-25T17:32:03.129Z,17.00
2017-09-25T17:34:37.554Z,17.00
2017-09-25T17:37:12.362Z,16.90
2017-09-25T17:39:47.006Z,16.90
2017-09-25T17:42:21.722Z,16.80
2017-09-25T17:44:56.238Z,16.80
2017-09-25T17:47:30.810Z,16.70
2017-09-25T17:50:11.255Z,16.70
2017-09-25T17:52:45.722Z,16.60
2017-09-25T17:55:21.011Z,16.50
2017-09-25T17:57:55.658Z,16.50
2017-09-25T18:00:30.242Z,16.50
2017-09-25T18:03:04.858Z,16.30
2017-09-25T18:05:39.382Z,16.30
2017-09-25T18:08:14.007Z,16.30
2017-09-25T18:10:48.590Z,16.20
2017-09-25T18:13:23.209Z,16.20
2017-09-25T18:15:57.689Z,16.20
2017-09-25T18:18:33.187Z,16.20
2017-09-25T18:21:07.718Z,16.00
2017-09-25T18:23:42.398Z,16.10
2017-09-25T18:26:16.969Z,16.10
2017-09-25T18:28:51.558Z,16.00
2017-09-25T18:31:26.121Z,16.00
2017-09-25T18:34:00.629Z,16.00
2017-09-25T18:36:35.233Z,16.00
2017-09-25T18:39:09.759Z,15.90
2017-09-25T18:41:45.099Z,15.80
2017-09-25T18:44:19.718Z,15.80
2017-09-25T18:46:54.242Z,15.80
2017-09-25T18:49:28.757Z,15.70
2017-09-25T18:52:04.126Z,15.60
2017-09-25T18:54:38.785Z,15.60
2017-09-25T18:57:13.266Z,15.50
2017-09-25T18:59:47.864Z,15.40
2017-09-25T19:02:22.498Z,15.30
2017-09-25T19:04:57.074Z,15.30
2017-09-25T19:07:31.565Z,15.30
2017-09-25T19:10:14.742Z,15.30
2017-09-25T19:12:49.247Z,15.20
2017-09-25T19:15:23.819Z,15.20
2017-09-25T19:17:58.329Z,15.10
2017-09-25T19:20:32.899Z,15.10
2017-09-25T19:23:07.408Z,15.10
2017-09-25T19:25:42.030Z,15.10
2017-09-25T19:28:16.690Z,15.00
2017-09-25T19:30:51.285Z,14.90
2017-09-25T19:33:25.748Z,14.90
2017-09-25T19:36:00.360Z,14.80
2017-09-25T19:38:34.966Z,14.90
2017-09-25T19:41:09.624Z,14.90
2017-09-25T19:43:44.262Z,14.90
2017-09-25T19:46:18.682Z,14.90
2017-09-25T19:48:53.401Z,14.80
2017-09-25T19:51:27.817Z,14.70
2017-09-25T19:54:02.129Z,14.70
2017-09-25T19:56:36.468Z,14.70
2017-09-25T19:59:10.854Z,14.70
2017-09-25T20:01:44.945Z,14.50
2017-09-25T20:04:19.595Z,14.50
2017-09-25T20:06:53.975Z,14.60
2017-09-25T20:09:28.387Z,14.60
2017-09-25T20:12:02.802Z,14.60
2017-09-25T20:14:43.308Z,14.70
2017-09-25T20:20:26.277Z,14.70
2017-09-25T20:23:00.791Z,14.70
2017-09-25T20:25:35.342Z,14.80
2017-09-25T20:28:09.926Z,14.80
2017-09-25T20:30:44.467Z,14.80
2017-09-25T20:33:18.925Z,14.70
2017-09-25T20:35:53.491Z,14.80
2017-09-25T20:38:27.855Z,14.70
2017-09-25T20:41:02.246Z,14.80
2017-09-25T20:43:37.106Z,14.70
2017-09-25T20:46:11.594Z,14.70
2017-09-25T20:48:46.242Z,14.60
2017-09-25T20:51:20.999Z,14.60
2017-09-25T20:53:55.536Z,14.60
2017-09-25T20:56:30.142Z,14.50
2017-09-25T20:59:04.615Z,14.40
2017-09-25T21:01:39.235Z,14.50
2017-09-25T21:04:13.817Z,14.40
2017-09-25T21:06:48.403Z,14.40
2017-09-25T21:09:22.913Z,14.40
2017-09-25T21:11:57.540Z,14.50
2017-09-25T21:14:32.173Z,14.40
2017-09-25T21:17:07.387Z,14.50
2017-09-25T21:19:41.773Z,14.40
2017-09-25T21:22:16.151Z,14.50
2017-09-25T21:24:50.763Z,14.40
2017-09-25T21:27:27.863Z,14.40
2017-09-25T21:30:02.760Z,14.40
2017-09-25T21:32:42.653Z,14.40
2017-09-25T21:35:17.190Z,14.40
2017-09-25T21:37:51.694Z,14.40
2017-09-25T21:40:26.236Z,14.40
2017-09-25T21:43:00.818Z,14.30
2017-09-25T21:45:36.153Z,14.40
2017-09-25T21:48:10.763Z,14.30
2017-09-25T21:50:45.339Z,14.40
2017-09-25T21:53:19.854Z,14.40
2017-09-25T21:55:55.222Z,14.40
2017-09-25T21:58:30.041Z,14.40
2017-09-25T22:01:04.579Z,14.40
2017-09-25T22:03:39.490Z,14.40
2017-09-25T22:06:14.185Z,14.40
2017-09-25T22:08:48.835Z,14.40
2017-09-25T22:11:23.299Z,14.40
2017-09-25T22:13:57.749Z,14.40
2017-09-25T22:16:32.330Z,14.40
2017-09-25T22:19:06.779Z,14.40
2017-09-25T22:21:41.377Z,14.40
2017-09-25T22:24:16.117Z,14.40
2017-09-25T22:26:50.749Z,14.40
2017-09-25T22:29:25.331Z,14.40
2017-09-25T22:32:00.700Z,14.30
2017-09-25T22:34:35.146Z,14.30
2017-09-25T22:37:09.526Z,14.30
2017-09-25T22:39:44.005Z,14.30
2017-09-25T22:42:18.615Z,14.30
2017-09-25T22:44:53.040Z,14.30
2017-09-25T22:47:27.540Z,14.30
2017-09-25T22:50:01.938Z,14.30
2017-09-25T22:52:36.315Z,14.30
2017-09-25T22:55:14.887Z,14.30
2017-09-25T22:57:49.303Z,14.20
2017-09-25T23:00:23.278Z,14.20
2017-09-25T23:02:57.702Z,14.20
2017-09-25T23:08:36.087Z,14.00
2017-09-25T23:11:12.923Z,14.00
2017-09-25T23:13:47.454Z,14.00
2017-09-25T23:16:22.045Z,14.00
2017-09-25T23:18:56.623Z,13.90
2017-09-25T23:21:31.122Z,13.90
2017-09-25T23:24:05.611Z,13.90
2017-09-25T23:26:39.962Z,13.90
2017-09-25T23:29:14.417Z,13.90
2017-09-25T23:31:48.774Z,13.90
2017-09-25T23:34:23.710Z,13.90
2017-09-25T23:36:58.387Z,13.90
2017-09-25T23:39:32.954Z,13.90
2017-09-25T23:42:07.494Z,13.90
2017-09-25T23:44:42.153Z,13.80
2017-09-25T23:47:16.650Z,13.80
2017-09-25T23:49:51.290Z,13.80
2017-09-25T23:52:25.869Z,13.80
2017-09-25T23:55:00.334Z,13.80
2017-09-25T23:57:34.885Z,13.80
